Time;durP1;ratioP1;P1;durP2;ratioP2;P2;SDS_P1;SDS_P2;PMS_P1;PMS_P2;Temp;Humidity;BMP_temperature;BMP_pressure;BME280_temperature;BME280_humidity;BME280_pressure;Samples;Min_cycle;Max_cycle;Signal;HPM_P1;HPM_P2
2024/03/09 00:01:16;;;;;;;34.67;23.83;;;6.50;99.90;;;;;;5039055;28;20067;-34
2024/03/09 00:03:42;;;;;;;40.60;28.10;;;6.50;99.90;;;;;;5039984;28;20513;-33
2024/03/09 00:06:08;;;;;;;38.78;26.05;;;6.50;99.90;;;;;;5039349;28;20351;-32
2024/03/09 00:08:34;;;;;;;36.85;26.10;;;6.50;99.90;;;;;;5038195;28;20037;-31
2024/03/09 00:11:00;;;;;;;38.35;26.65;;;6.40;99.90;;;;;;5039588;28;20029;-33
2024/03/09 00:13:27;;;;;;;39.08;26.80;;;6.40;99.90;;;;;;5038707;28;20075;-34
2024/03/09 00:15:54;;;;;;;39.20;27.25;;;6.40;99.90;;;;;;5038629;28;20409;-33
2024/03/09 00:18:23;;;;;;;36.65;26.40;;;6.40;99.90;;;;;;5039349;28;20237;-35
2024/03/09 00:20:49;;;;;;;39.53;26.83;;;6.40;99.90;;;;;;5039338;28;20033;-36
2024/03/09 00:23:17;;;;;;;41.33;28.63;;;6.30;99.90;;;;;;5038794;28;20052;-36
2024/03/09 00:25:43;;;;;;;39.83;27.42;;;6.30;99.90;;;;;;5039563;28;20190;-30
2024/03/09 00:28:09;;;;;;;39.00;27.13;;;6.30;99.90;;;;;;5038680;28;20040;-32
2024/03/09 00:30:35;;;;;;;43.75;28.50;;;6.30;99.90;;;;;;5038426;28;20021;-33
2024/03/09 00:33:01;;;;;;;38.97;26.83;;;6.30;99.90;;;;;;5039437;28;20491;-33
2024/03/09 00:35:29;;;;;;;37.67;26.35;;;6.30;99.90;;;;;;5037577;28;20067;-35
2024/03/09 00:37:58;;;;;;;41.13;27.35;;;6.30;99.90;;;;;;5039517;28;20060;-35
2024/03/09 00:40:30;;;;;;;42.05;27.48;;;6.30;99.90;;;;;;5038497;28;20033;-32
2024/03/09 00:42:57;;;;;;;42.10;27.13;;;6.20;99.90;;;;;;5038827;28;20024;-36
2024/03/09 00:45:23;;;;;;;40.65;27.10;;;6.20;99.90;;;;;;5039466;28;20040;-33
2024/03/09 00:47:49;;;;;;;36.83;25.15;;;6.20;99.90;;;;;;5042927;28;20673;-34
2024/03/09 00:50:15;;;;;;;36.83;25.55;;;6.20;99.90;;;;;;5042073;28;20602;-34
2024/03/09 00:52:42;;;;;;;38.72;28.08;;;6.20;99.90;;;;;;5043100;28;20044;-31
2024/03/09 00:55:13;;;;;;;38.40;26.98;;;6.10;99.90;;;;;;5043138;28;20112;-34
2024/03/09 00:57:41;;;;;;;42.53;27.90;;;6.20;99.90;;;;;;5041808;28;20025;-35
2024/03/09 01:00:11;;;;;;;41.10;28.88;;;6.10;99.90;;;;;;5042527;28;20021;-32
2024/03/09 01:02:41;;;;;;;41.28;26.02;;;6.10;99.90;;;;;;5042968;28;20793;-31
2024/03/09 01:05:07;;;;;;;41.65;27.52;;;6.10;99.90;;;;;;5041541;28;20135;-34
2024/03/09 01:07:34;;;;;;;41.65;27.75;;;6.10;99.90;;;;;;5041833;28;20051;-31
2024/03/09 01:10:00;;;;;;;41.28;27.75;;;6.10;99.90;;;;;;5043057;28;20029;-33
2024/03/09 01:12:29;;;;;;;41.22;27.92;;;6.10;99.90;;;;;;5041233;28;20036;-34
2024/03/09 01:14:57;;;;;;;41.65;28.63;;;6.10;99.90;;;;;;5042737;28;20330;-30
2024/03/09 01:17:23;;;;;;;41.92;28.15;;;6.00;99.90;;;;;;5039129;28;20929;-33
2024/03/09 01:19:52;;;;;;;40.08;27.08;;;6.10;99.90;;;;;;5042548;28;20565;-33
2024/03/09 01:22:19;;;;;;;40.60;28.10;;;6.00;99.90;;;;;;5041420;28;20827;-32
2024/03/09 01:24:45;;;;;;;40.88;27.45;;;6.00;99.90;;;;;;5041935;28;20296;-35
2024/03/09 01:27:11;;;;;;;42.30;28.38;;;6.00;99.90;;;;;;5042153;28;20024;-31
2024/03/09 01:29:43;;;;;;;40.22;27.30;;;6.00;99.90;;;;;;5041835;28;20531;-36
2024/03/09 01:32:12;;;;;;;37.70;26.20;;;6.00;99.90;;;;;;5041782;28;20132;-35
2024/03/09 01:34:38;;;;;;;37.85;26.17;;;6.00;99.90;;;;;;5042366;28;20048;-31
2024/03/09 01:37:07;;;;;;;35.55;25.00;;;6.00;99.90;;;;;;5041823;28;20025;-35
2024/03/09 01:39:33;;;;;;;35.85;25.55;;;6.00;99.90;;;;;;5041225;28;20032;-32
2024/03/09 01:41:59;;;;;;;34.22;24.65;;;6.00;99.90;;;;;;5042055;28;20562;-33
2024/03/09 01:44:25;;;;;;;36.40;25.65;;;6.00;99.90;;;;;;5041555;28;20033;-32
2024/03/09 01:46:50;;;;;;;35.60;25.27;;;6.00;99.90;;;;;;5041288;28;20449;-31
2024/03/09 01:49:19;;;;;;;36.25;23.98;;;6.00;99.90;;;;;;5041853;28;20112;-31
2024/03/09 01:51:47;;;;;;;34.20;24.10;;;5.90;99.90;;;;;;5042014;28;20028;-36
2024/03/09 01:54:19;;;;;;;37.97;25.65;;;5.90;99.90;;;;;;5041278;28;20048;-33
2024/03/09 01:56:46;;;;;;;40.17;26.95;;;5.90;99.90;;;;;;5041428;28;20025;-32
2024/03/09 01:59:21;;;;;;;43.63;28.05;;;5.90;99.90;;;;;;5042028;28;20042;-35
2024/03/09 02:01:50;;;;;;;40.88;26.92;;;5.90;99.90;;;;;;5041234;28;20025;-33
2024/03/09 02:04:16;;;;;;;40.17;27.23;;;5.80;99.90;;;;;;5042103;28;20041;-31
2024/03/09 02:06:41;;;;;;;41.63;28.13;;;5.90;99.90;;;;;;5040685;28;20075;-30
2024/03/09 02:09:08;;;;;;;37.95;26.52;;;5.80;99.90;;;;;;5041016;28;20041;-36
2024/03/09 02:11:51;;;;;;;42.63;27.55;;;5.80;99.90;;;;;;5041798;28;20544;-35
2024/03/09 02:14:18;;;;;;;37.20;26.17;;;5.80;99.90;;;;;;5040631;28;20029;-33
2024/03/09 02:16:43;;;;;;;36.17;25.42;;;5.80;99.90;;;;;;5041671;28;20021;-34
2024/03/09 02:19:13;;;;;;;36.03;25.77;;;5.80;99.90;;;;;;5041146;28;20053;-39
2024/03/09 02:21:40;;;;;;;33.92;23.38;;;5.80;99.90;;;;;;5040948;28;20693;-31
2024/03/09 02:24:07;;;;;;;35.45;23.77;;;5.70;99.90;;;;;;5041033;28;20626;-35
2024/03/09 02:26:37;;;;;;;39.42;24.38;;;5.70;99.90;;;;;;5041457;28;20021;-33
2024/03/09 02:29:03;;;;;;;38.08;25.52;;;5.70;99.90;;;;;;5040984;28;20079;-33
2024/03/09 02:31:29;;;;;;;43.45;27.90;;;5.70;99.90;;;;;;5041133;28;20029;-35
2024/03/09 02:33:55;;;;;;;37.30;25.60;;;5.70;99.90;;;;;;5041266;28;20037;-32
2024/03/09 02:36:25;;;;;;;37.40;26.27;;;5.70;99.90;;;;;;5041136;28;20039;-31
2024/03/09 02:38:51;;;;;;;37.42;25.88;;;5.60;99.90;;;;;;5041950;28;20028;-32
2024/03/09 02:41:20;;;;;;;35.67;24.63;;;5.60;99.90;;;;;;5041207;28;20029;-34
2024/03/09 02:43:47;;;;;;;34.72;24.15;;;5.70;99.90;;;;;;5040400;28;20497;-32
2024/03/09 02:46:15;;;;;;;36.22;24.38;;;5.60;99.90;;;;;;5040859;28;20075;-33
2024/03/09 02:48:44;;;;;;;39.53;25.15;;;5.60;99.90;;;;;;5040637;28;20033;-34
2024/03/09 02:51:13;;;;;;;40.53;26.95;;;5.60;99.90;;;;;;5040354;28;20577;-34
2024/03/09 02:53:50;;;;;;;38.05;25.30;;;5.60;99.90;;;;;;5040708;28;20028;-33
2024/03/09 02:56:24;;;;;;;41.22;26.55;;;5.60;99.90;;;;;;5040621;28;20044;-34
2024/03/09 02:58:49;;;;;;;41.13;27.17;;;5.60;99.90;;;;;;5041484;28;20036;-34
2024/03/09 03:01:20;;;;;;;36.40;24.60;;;5.60;99.90;;;;;;5040673;28;20054;-35
2024/03/09 03:03:47;;;;;;;39.70;26.48;;;5.50;99.90;;;;;;5040290;28;20029;-31
2024/03/09 03:06:23;;;;;;;38.33;26.10;;;5.50;99.90;;;;;;5040060;28;20458;-33
2024/03/09 03:08:53;;;;;;;39.80;26.63;;;5.50;99.90;;;;;;5039950;28;20045;-32
2024/03/09 03:11:19;;;;;;;38.58;26.15;;;5.50;99.90;;;;;;5039319;28;20024;-36
2024/03/09 03:13:46;;;;;;;40.05;25.95;;;5.50;99.90;;;;;;5040664;28;20071;-34
2024/03/09 03:16:19;;;;;;;41.95;27.67;;;5.50;99.90;;;;;;5040817;28;20025;-35
2024/03/09 03:19:06;;;;;;;39.75;27.40;;;5.40;99.90;;;;;;5040117;28;20082;-35
2024/03/09 03:21:36;;;;;;;40.80;28.10;;;5.40;99.90;;;;;;5039822;28;20040;-34
2024/03/09 03:24:02;;;;;;;37.17;25.20;;;5.40;99.90;;;;;;5039774;28;20051;-33
2024/03/09 03:26:30;;;;;;;38.47;25.08;;;5.40;99.90;;;;;;5039877;28;20025;-34
2024/03/09 03:28:56;;;;;;;35.25;23.67;;;5.40;99.90;;;;;;5040553;28;20116;-36
2024/03/09 03:31:22;;;;;;;33.92;23.80;;;5.40;99.90;;;;;;5038830;28;20025;-31
2024/03/09 03:33:49;;;;;;;34.25;24.05;;;5.40;99.90;;;;;;5040457;28;20037;-30
2024/03/09 03:36:19;;;;;;;38.40;25.75;;;5.40;99.90;;;;;;5039469;28;20032;-33
2024/03/09 03:38:48;;;;;;;37.75;25.13;;;5.40;99.90;;;;;;5039247;28;20029;-35
2024/03/09 03:41:15;;;;;;;38.88;26.63;;;5.40;99.90;;;;;;5039721;28;20087;-34
2024/03/09 03:43:42;;;;;;;38.88;25.88;;;5.30;99.90;;;;;;5039520;28;20121;-30
2024/03/09 03:46:09;;;;;;;39.83;27.02;;;5.30;99.90;;;;;;5038721;28;20216;-33
2024/03/09 03:48:35;;;;;;;39.63;26.25;;;5.30;99.90;;;;;;5039346;28;20029;-34
2024/03/09 03:51:01;;;;;;;38.63;25.70;;;5.30;99.90;;;;;;5039174;28;20029;-30
2024/03/09 03:53:28;;;;;;;42.08;27.73;;;5.30;99.90;;;;;;5038624;28;20086;-32
2024/03/09 03:55:53;;;;;;;39.33;26.52;;;5.30;99.90;;;;;;5039113;28;20033;-32
2024/03/09 03:58:22;;;;;;;38.30;26.10;;;5.30;99.90;;;;;;5039005;28;20032;-33
2024/03/09 04:00:48;;;;;;;38.13;26.25;;;5.30;99.90;;;;;;5038510;28;20024;-33
2024/03/09 04:03:17;;;;;;;38.25;26.13;;;5.30;99.90;;;;;;5039416;28;20033;-33
2024/03/09 04:05:49;;;;;;;37.10;24.85;;;5.30;99.90;;;;;;5039674;28;20037;-31
2024/03/09 04:08:16;;;;;;;37.97;25.05;;;5.30;99.90;;;;;;5038632;28;20049;-34
2024/03/09 04:10:43;;;;;;;37.13;25.30;;;5.30;99.90;;;;;;5038165;28;20114;-30
2024/03/09 04:13:11;;;;;;;35.35;24.70;;;5.30;99.90;;;;;;5038746;28;20035;-33
2024/03/09 04:15:37;;;;;;;36.95;24.45;;;5.30;99.90;;;;;;5038568;28;20034;-35
2024/03/09 04:18:04;;;;;;;35.35;24.73;;;5.30;99.90;;;;;;5039109;28;20036;-35
2024/03/09 04:20:34;;;;;;;40.47;26.77;;;5.30;99.90;;;;;;5041050;28;20028;-31
2024/03/09 04:23:04;;;;;;;38.80;27.42;;;5.30;99.90;;;;;;5043981;28;20021;-32
2024/03/09 04:25:32;;;;;;;38.67;26.60;;;5.30;99.90;;;;;;5044180;28;20036;-32
2024/03/09 04:27:58;;;;;;;40.90;27.23;;;5.30;99.90;;;;;;5043378;28;20036;-33
2024/03/09 04:30:23;;;;;;;38.70;25.42;;;5.30;99.90;;;;;;5042768;28;20044;-30
2024/03/09 04:32:49;;;;;;;41.70;27.58;;;5.30;99.90;;;;;;5043589;28;20743;-29
2024/03/09 04:35:20;;;;;;;38.28;27.20;;;5.30;99.90;;;;;;5042879;28;20535;-30
2024/03/09 04:37:46;;;;;;;43.90;28.20;;;5.30;99.90;;;;;;5044091;28;20472;-31
2024/03/09 04:40:15;;;;;;;40.40;27.98;;;5.30;99.90;;;;;;5043658;28;20025;-32
2024/03/09 04:42:46;;;;;;;39.53;26.38;;;5.30;99.90;;;;;;5042811;28;20086;-32
2024/03/09 04:45:12;;;;;;;39.85;27.05;;;5.30;99.90;;;;;;5043200;28;20103;-32
2024/03/09 04:47:38;;;;;;;40.33;27.05;;;5.30;99.90;;;;;;5043053;28;20347;-34
2024/03/09 04:50:05;;;;;;;42.55;26.30;;;5.30;99.90;;;;;;5042319;28;20515;-32
2024/03/09 04:52:30;;;;;;;35.75;26.25;;;5.30;99.90;;;;;;5042877;28;20098;-36
2024/03/09 04:54:56;;;;;;;38.15;25.58;;;5.30;99.90;;;;;;5043207;28;20063;-32
2024/03/09 04:57:28;;;;;;;34.72;24.15;;;5.30;99.90;;;;;;5041964;28;20496;-34
2024/03/09 04:59:54;;;;;;;35.85;25.52;;;5.30;99.90;;;;;;5043256;28;20492;-32
2024/03/09 05:02:20;;;;;;;35.53;23.10;;;5.30;99.90;;;;;;5042567;28;20028;-33
2024/03/09 05:04:45;;;;;;;33.20;22.95;;;5.30;99.90;;;;;;5042626;28;20040;-34
2024/03/09 05:07:11;;;;;;;34.75;23.85;;;5.30;99.90;;;;;;5042405;28;20069;-34
2024/03/09 05:09:40;;;;;;;34.15;22.63;;;5.30;99.90;;;;;;5041876;28;20071;-32
2024/03/09 05:12:06;;;;;;;34.65;23.42;;;5.30;99.90;;;;;;5040972;28;20025;-31
2024/03/09 05:14:31;;;;;;;37.08;24.15;;;5.30;99.90;;;;;;5040885;28;20921;-35
2024/03/09 05:16:58;;;;;;;34.33;24.00;;;5.30;99.90;;;;;;5040559;28;20132;-36
2024/03/09 05:19:23;;;;;;;32.63;21.55;;;5.30;99.90;;;;;;5041169;28;20467;-33
2024/03/09 05:21:52;;;;;;;32.40;23.58;;;5.30;99.90;;;;;;5041171;28;20042;-34
2024/03/09 05:24:17;;;;;;;37.10;24.65;;;5.30;99.90;;;;;;5040079;28;20060;-34
2024/03/09 05:26:43;;;;;;;37.00;24.73;;;5.30;99.90;;;;;;5042436;28;20111;-33
2024/03/09 05:29:13;;;;;;;34.47;23.65;;;5.20;99.90;;;;;;5042093;28;20102;-35
2024/03/09 05:31:39;;;;;;;36.60;24.60;;;5.20;99.90;;;;;;5041455;28;20404;-34
2024/03/09 05:34:09;;;;;;;35.00;24.65;;;5.20;99.90;;;;;;5041767;28;20566;-37
2024/03/09 05:36:35;;;;;;;37.08;24.33;;;5.20;99.90;;;;;;5041677;28;20335;-31
2024/03/09 05:39:01;;;;;;;37.30;24.27;;;5.20;99.90;;;;;;5041590;28;20029;-31
2024/03/09 05:41:26;;;;;;;37.00;24.85;;;5.10;99.90;;;;;;5041529;28;20460;-35
2024/03/09 05:43:52;;;;;;;35.78;23.50;;;5.10;99.90;;;;;;5041837;28;20040;-34
2024/03/09 05:46:18;;;;;;;36.80;23.27;;;5.10;99.90;;;;;;5040983;28;20111;-34
2024/03/09 05:48:45;;;;;;;33.88;23.30;;;5.00;99.90;;;;;;5042511;28;20040;-35
2024/03/09 05:51:18;;;;;;;33.15;23.25;;;5.10;99.90;;;;;;5042044;28;20025;-30
2024/03/09 05:53:44;;;;;;;34.25;23.85;;;5.00;99.90;;;;;;5041917;28;20037;-36
2024/03/09 05:56:12;;;;;;;34.33;24.80;;;5.00;99.90;;;;;;5042163;28;20098;-32
2024/03/09 05:58:38;;;;;;;35.55;25.05;;;5.00;99.90;;;;;;5041791;28;20534;-34
2024/03/09 06:01:04;;;;;;;37.20;24.80;;;5.00;99.90;;;;;;5040765;28;20132;-33
2024/03/09 06:03:30;;;;;;;40.38;26.98;;;5.00;99.90;;;;;;5042037;28;20039;-33
2024/03/09 06:05:56;;;;;;;39.90;26.45;;;5.00;99.90;;;;;;5040904;28;20575;-35
2024/03/09 06:08:22;;;;;;;38.38;26.00;;;5.00;99.90;;;;;;5041466;28;20787;-32
2024/03/09 06:10:49;;;;;;;39.17;25.60;;;5.00;99.90;;;;;;5041635;28;20355;-32
2024/03/09 06:13:22;;;;;;;36.17;25.70;;;5.00;99.90;;;;;;5041160;28;20556;-36
2024/03/09 06:15:47;;;;;;;38.22;25.35;;;5.00;99.90;;;;;;5042443;28;20021;-36
2024/03/09 06:18:19;;;;;;;39.55;26.48;;;5.00;99.90;;;;;;5041731;28;20043;-31
2024/03/09 06:20:44;;;;;;;33.88;24.20;;;5.00;99.90;;;;;;5041650;28;20410;-35
2024/03/09 06:23:11;;;;;;;36.35;24.67;;;5.00;99.90;;;;;;5041681;28;20055;-33
2024/03/09 06:25:36;;;;;;;37.45;25.05;;;5.00;99.90;;;;;;5041855;28;20029;-34
2024/03/09 06:28:13;;;;;;;37.50;25.88;;;5.00;99.90;;;;;;5041453;28;20086;-36
2024/03/09 06:30:39;;;;;;;34.83;24.15;;;5.00;99.90;;;;;;5041372;28;20059;-32
2024/03/09 06:33:05;;;;;;;36.80;25.63;;;5.00;99.90;;;;;;5040451;28;20128;-30
2024/03/09 06:35:31;;;;;;;35.95;24.92;;;5.00;99.90;;;;;;5039652;28;20044;-35
2024/03/09 06:38:04;;;;;;;38.78;25.35;;;5.10;99.90;;;;;;5040321;28;20731;-30
2024/03/09 06:40:31;;;;;;;34.40;24.38;;;5.10;99.90;;;;;;5040308;28;20129;-33
2024/03/09 06:43:08;;;;;;;40.28;25.52;;;5.10;99.90;;;;;;5039387;28;20029;-32
2024/03/09 06:45:36;;;;;;;37.30;25.52;;;5.10;99.90;;;;;;5041153;28;20510;-31
2024/03/09 06:48:03;;;;;;;35.25;23.63;;;5.20;99.90;;;;;;5040391;28;20020;-32
2024/03/09 06:50:31;;;;;;;34.58;23.77;;;5.20;99.90;;;;;;5041350;28;20025;-32
2024/03/09 06:52:58;;;;;;;34.42;23.77;;;5.20;99.90;;;;;;5040058;28;20063;-34
2024/03/09 06:55:26;;;;;;;34.17;23.58;;;5.20;99.90;;;;;;5019370;28;20040;-34
2024/03/09 06:57:56;;;;;;;35.33;23.98;;;5.30;99.90;;;;;;5035269;28;20032;-35
2024/03/09 07:00:28;;;;;;;34.15;23.10;;;5.30;99.90;;;;;;5040246;28;20226;-34
2024/03/09 07:02:57;;;;;;;31.23;22.40;;;5.40;99.90;;;;;;5039829;28;20551;-31
2024/03/09 07:05:31;;;;;;;32.80;21.95;;;5.40;99.90;;;;;;5040206;28;20028;-30
2024/03/09 07:07:59;;;;;;;;;;;5.40;99.90;;;;;;5040220;28;20037;-33
2024/03/09 07:10:27;;;;;;;30.70;20.70;;;5.40;99.90;;;;;;5039276;28;20023;-33
2024/03/09 07:12:59;;;;;;;32.65;22.02;;;5.40;99.90;;;;;;5039795;28;20047;-33
2024/03/09 07:15:29;;;;;;;30.90;20.97;;;5.40;99.90;;;;;;5040194;28;20045;-30
2024/03/09 07:17:55;;;;;;;30.73;21.08;;;5.50;99.90;;;;;;5039859;28;20052;-34
2024/03/09 07:20:23;;;;;;;30.40;21.20;;;5.50;99.90;;;;;;5039859;28;20866;-36
2024/03/09 07:22:50;;;;;;;32.28;22.63;;;5.50;99.90;;;;;;5040450;28;20032;-32
2024/03/09 07:25:25;;;;;;;30.00;20.88;;;5.50;99.90;;;;;;5039428;28;20120;-32
2024/03/09 07:27:56;;;;;;;31.50;21.15;;;5.50;99.90;;;;;;5037298;28;20435;-31
2024/03/09 07:30:22;;;;;;;31.70;21.52;;;5.60;99.90;;;;;;5037788;28;20458;-33
2024/03/09 07:32:53;;;;;;;29.52;21.08;;;5.60;99.90;;;;;;5038967;28;20021;-36
2024/03/09 07:35:20;;;;;;;30.58;20.52;;;5.60;99.90;;;;;;5038971;28;20518;-34
2024/03/09 07:37:55;;;;;;;28.45;20.02;;;5.60;99.90;;;;;;5038595;28;20048;-29
2024/03/09 07:40:22;;;;;;;27.92;20.05;;;5.70;99.90;;;;;;5038614;28;20029;-31
2024/03/09 07:42:49;;;;;;;30.65;20.98;;;5.70;99.90;;;;;;5037328;28;20499;-28
2024/03/09 07:45:15;;;;;;;29.02;19.48;;;5.70;99.90;;;;;;5037109;28;20025;-33
2024/03/09 07:47:45;;;;;;;28.73;19.83;;;5.80;99.90;;;;;;5037669;28;20045;-33
2024/03/09 07:50:16;;;;;;;27.40;18.88;;;5.80;99.90;;;;;;5036903;28;20075;-34
2024/03/09 07:52:49;;;;;;;27.67;18.92;;;5.90;99.90;;;;;;5036902;28;20103;-31
2024/03/09 07:55:16;;;;;;;29.98;21.52;;;5.90;99.90;;;;;;5037073;28;20037;-33
2024/03/09 07:57:43;;;;;;;30.45;20.83;;;6.00;99.90;;;;;;5038102;28;20512;-31
2024/03/09 08:00:16;;;;;;;28.23;21.15;;;6.00;99.90;;;;;;5038071;28;20039;-33
2024/03/09 08:02:43;;;;;;;26.42;19.25;;;6.00;99.90;;;;;;5018657;28;20039;-31
2024/03/09 08:05:14;;;;;;;26.13;18.58;;;6.00;99.90;;;;;;5032771;28;20396;-32
2024/03/09 08:07:40;;;;;;;25.67;17.92;;;6.10;99.90;;;;;;5037629;28;20052;-29
2024/03/09 08:10:06;;;;;;;26.15;17.90;;;6.10;99.90;;;;;;5039095;28;20028;-33
2024/03/09 08:12:33;;;;;;;24.30;17.92;;;6.10;99.90;;;;;;5037668;28;20028;-32
2024/03/09 08:15:00;;;;;;;26.77;19.10;;;6.10;99.90;;;;;;5038180;28;20072;-31
2024/03/09 08:17:26;;;;;;;24.50;18.33;;;6.20;99.90;;;;;;5038463;28;20033;-31
2024/03/09 08:19:51;;;;;;;28.58;20.17;;;6.20;99.90;;;;;;5038162;28;20083;-35
2024/03/09 08:22:17;;;;;;;26.88;18.35;;;6.20;99.90;;;;;;5038170;28;20033;-34
2024/03/09 08:24:43;;;;;;;25.88;19.02;;;6.20;99.90;;;;;;5038943;28;20045;-32
2024/03/09 08:27:12;;;;;;;25.55;18.77;;;6.20;99.90;;;;;;5027606;28;20021;-32
2024/03/09 08:29:41;;;;;;;28.98;19.95;;;6.20;99.90;;;;;;5038964;28;20033;-29
2024/03/09 08:32:06;;;;;;;25.95;19.05;;;6.20;99.90;;;;;;5039869;28;20036;-32
2024/03/09 08:34:32;;;;;;;27.35;18.92;;;6.20;99.90;;;;;;5038639;28;20087;-32
2024/03/09 08:36:59;;;;;;;27.27;19.55;;;6.30;99.90;;;;;;5039812;28;20029;-30
2024/03/09 08:39:25;;;;;;;26.00;18.50;;;6.30;99.90;;;;;;5039532;28;20025;-29
2024/03/09 08:41:51;;;;;;;28.40;20.33;;;6.40;99.90;;;;;;5038714;28;20032;-35
2024/03/09 08:44:20;;;;;;;26.67;19.70;;;6.50;99.90;;;;;;5037858;28;20053;-30
2024/03/09 08:46:45;;;;;;;26.83;19.27;;;6.60;99.90;;;;;;5037066;28;20744;-32
2024/03/09 08:49:13;;;;;;;26.08;18.23;;;6.60;99.90;;;;;;5037027;28;20025;-33
2024/03/09 08:51:39;;;;;;;24.70;17.17;;;6.70;99.90;;;;;;5034348;28;20625;-34
2024/03/09 08:54:08;;;;;;;24.63;17.48;;;6.80;99.90;;;;;;5036695;28;20048;-35
2024/03/09 08:56:34;;;;;;;28.65;19.45;;;6.90;99.90;;;;;;5035436;28;20151;-31
2024/03/09 08:59:01;;;;;;;29.23;20.58;;;7.00;99.90;;;;;;5037434;28;20029;-33
2024/03/09 09:01:26;;;;;;;25.33;18.83;;;7.00;99.90;;;;;;5038237;28;20078;-32
2024/03/09 09:03:54;;;;;;;27.08;18.95;;;7.00;99.90;;;;;;5038526;28;20430;-35
2024/03/09 09:06:23;;;;;;;28.98;19.20;;;7.10;99.90;;;;;;5040028;28;20492;-33
2024/03/09 09:08:51;;;;;;;24.48;18.40;;;7.10;99.90;;;;;;5042501;28;20488;-34
2024/03/09 09:11:18;;;;;;;25.42;18.85;;;7.20;99.90;;;;;;5041632;28;20020;-29
2024/03/09 09:13:44;;;;;;;25.00;18.75;;;7.30;99.90;;;;;;5042656;28;20041;-40
2024/03/09 09:16:10;;;;;;;27.33;18.80;;;7.40;99.90;;;;;;5042073;28;20103;-34
2024/03/09 09:18:35;;;;;;;23.15;16.67;;;7.40;99.90;;;;;;5042166;28;20098;-36
2024/03/09 09:21:01;;;;;;;25.33;17.48;;;7.50;99.90;;;;;;5041639;28;20020;-34
2024/03/09 09:23:27;;;;;;;21.52;15.38;;;7.60;99.90;;;;;;5039588;28;20028;-30
2024/03/09 09:25:52;;;;;;;21.75;16.38;;;7.70;99.90;;;;;;5041086;28;20021;-33
2024/03/09 09:28:19;;;;;;;20.23;14.27;;;7.70;99.90;;;;;;5040121;28;20043;-34
2024/03/09 09:30:45;;;;;;;23.50;17.00;;;7.80;99.90;;;;;;5040152;28;20183;-35
2024/03/09 09:33:14;;;;;;;20.75;15.50;;;7.80;99.90;;;;;;5040103;28;20643;-35
2024/03/09 09:35:40;;;;;;;23.35;15.93;;;7.90;99.90;;;;;;5042428;28;20032;-30
2024/03/09 09:38:06;;;;;;;24.45;18.45;;;8.00;99.90;;;;;;5040939;28;20468;-33
2024/03/09 09:40:32;;;;;;;23.45;17.20;;;8.00;99.90;;;;;;5042088;28;20025;-34
2024/03/09 09:43:02;;;;;;;22.48;16.65;;;8.00;99.90;;;;;;5041399;28;20033;-31
2024/03/09 09:45:33;;;;;;;23.27;17.48;;;8.00;99.90;;;;;;5039357;28;20119;-36
2024/03/09 09:47:59;;;;;;;24.15;17.98;;;8.00;99.90;;;;;;5040343;28;20040;-30
2024/03/09 09:50:26;;;;;;;23.73;18.20;;;8.00;99.90;;;;;;5040542;28;20037;-32
2024/03/09 09:52:59;;;;;;;29.70;20.15;;;8.00;99.90;;;;;;5037848;28;20105;-33
2024/03/09 09:55:24;;;;;;;22.42;16.08;;;8.00;99.90;;;;;;5038655;28;20106;-33
2024/03/09 09:57:51;;;;;;;19.42;15.73;;;8.00;99.90;;;;;;5040921;28;20032;-34
2024/03/09 10:00:17;;;;;;;22.83;16.25;;;8.10;99.90;;;;;;5040837;28;20033;-32
2024/03/09 10:02:43;;;;;;;20.25;15.77;;;8.10;99.90;;;;;;5040940;28;20605;-35
2024/03/09 10:05:13;;;;;;;21.63;16.23;;;8.10;99.90;;;;;;5039520;28;20035;-35
2024/03/09 10:07:59;;;;;;;22.55;16.52;;;8.20;99.90;;;;;;5040979;28;20040;-32
2024/03/09 10:10:43;;;;;;;24.65;17.23;;;8.30;99.90;;;;;;5039126;28;20032;-34
2024/03/09 10:13:08;;;;;;;20.77;15.70;;;8.30;99.90;;;;;;5040698;28;20052;-34
2024/03/09 10:15:35;;;;;;;18.80;14.32;;;8.40;99.90;;;;;;5041016;28;20128;-35
2024/03/09 10:18:02;;;;;;;19.23;13.75;;;8.40;99.90;;;;;;5041518;28;20040;-34
2024/03/09 10:20:29;;;;;;;20.10;14.40;;;8.50;99.90;;;;;;5040435;28;20032;-32
2024/03/09 10:22:56;;;;;;;21.15;15.10;;;8.60;99.90;;;;;;5041537;28;20575;-33
2024/03/09 10:25:25;;;;;;;21.25;15.82;;;8.70;99.90;;;;;;5041369;28;20043;-35
2024/03/09 10:27:55;;;;;;;18.75;14.10;;;8.80;99.90;;;;;;5040760;28;20029;-30
2024/03/09 10:30:23;;;;;;;19.30;14.65;;;8.80;99.90;;;;;;5039708;28;20036;-34
2024/03/09 10:32:48;;;;;;;19.25;14.38;;;8.90;99.90;;;;;;5040775;28;20063;-38
2024/03/09 10:35:14;;;;;;;18.73;14.00;;;9.00;99.90;;;;;;5038907;28;20136;-34
2024/03/09 10:37:41;;;;;;;21.15;14.60;;;9.00;99.90;;;;;;5040616;28;20475;-34
2024/03/09 10:40:13;;;;;;;21.42;14.82;;;9.10;99.90;;;;;;5039915;28;20043;-32
2024/03/09 10:42:46;;;;;;;22.67;16.50;;;9.20;99.90;;;;;;5040677;28;20029;-35
2024/03/09 10:45:12;;;;;;;;;;;9.30;99.90;;;;;;5041655;28;20028;-34
2024/03/09 10:47:52;;;;;;;25.13;16.55;;;9.30;99.90;;;;;;5040917;28;19908;-30
2024/03/09 10:50:29;;;;;;;22.38;16.70;;;9.30;99.90;;;;;;5040452;28;20033;-35
2024/03/09 10:53:10;;;;;;;24.13;17.33;;;9.40;99.90;;;;;;5040235;28;20517;-36
2024/03/09 10:56:05;;;;;;;23.33;16.52;;;9.50;99.90;;;;;;5039367;28;20033;-35
2024/03/09 10:58:36;;;;;;;21.08;15.45;;;9.50;99.90;;;;;;5021723;28;20037;-32
2024/03/09 11:01:02;;;;;;;22.60;15.95;;;9.60;99.90;;;;;;5035995;28;20079;-36
2024/03/09 11:03:32;;;;;;;21.13;16.05;;;9.70;99.90;;;;;;5039581;28;20163;-36
2024/03/09 11:05:57;;;;;;;21.15;15.18;;;9.80;99.90;;;;;;5040805;28;20036;-33
2024/03/09 11:08:23;;;;;;;19.52;14.23;;;9.90;99.90;;;;;;5039411;28;20407;-35
2024/03/09 11:10:49;;;;;;;18.40;13.52;;;9.90;99.90;;;;;;5039860;28;20033;-34
2024/03/09 11:13:18;;;;;;;16.00;12.73;;;10.00;99.90;;;;;;5040012;28;20048;-34
2024/03/09 11:15:50;;;;;;;17.98;13.05;;;10.10;99.90;;;;;;5039550;28;20029;-34
2024/03/09 11:18:19;;;;;;;18.42;13.63;;;10.20;99.90;;;;;;5039327;28;20053;-35
2024/03/09 11:20:50;;;;;;;18.52;13.70;;;10.30;99.90;;;;;;5040561;28;20728;-34
2024/03/09 11:23:23;;;;;;;22.52;15.50;;;10.30;99.90;;;;;;5039813;28;20128;-36
2024/03/09 11:25:53;;;;;;;17.48;13.55;;;10.40;99.90;;;;;;5040697;28;20057;-34
2024/03/09 11:28:44;;;;;;;17.58;13.48;;;10.40;99.90;;;;;;5038998;28;20056;-32
2024/03/09 11:31:14;;;;;;;18.88;14.30;;;10.40;99.90;;;;;;5038642;28;20162;-33
2024/03/09 11:33:46;;;;;;;17.27;13.23;;;10.50;99.90;;;;;;5039886;28;20844;-33
2024/03/09 11:36:44;;;;;;;19.73;13.70;;;10.50;99.90;;;;;;5039273;28;20025;-33
2024/03/09 11:39:14;;;;;;;18.67;13.10;;;10.60;99.90;;;;;;5039761;28;20029;-32
2024/03/09 11:42:11;;;;;;;17.42;12.32;;;10.70;99.90;;;;;;5039923;28;20021;-32
2024/03/09 11:44:38;;;;;;;19.38;14.60;;;10.80;99.90;;;;;;5038725;28;20043;-35
2024/03/09 11:47:05;;;;;;;21.48;16.85;;;11.00;99.90;;;;;;5039475;28;20124;-33
2024/03/09 11:49:33;;;;;;;24.08;17.27;;;11.00;99.90;;;;;;5039167;28;20087;-34
2024/03/09 11:52:00;;;;;;;21.85;16.90;;;11.00;99.90;;;;;;5038784;28;20424;-33
2024/03/09 11:54:27;;;;;;;25.25;18.00;;;11.00;99.90;;;;;;5038690;28;20041;-34
2024/03/09 11:56:53;;;;;;;22.42;16.95;;;11.00;99.90;;;;;;5039260;28;20138;-33
2024/03/09 11:59:19;;;;;;;25.23;18.48;;;11.00;99.90;;;;;;5038668;28;20033;-37
2024/03/09 12:02:07;;;;;;;22.38;17.17;;;11.10;99.90;;;;;;5039314;28;20219;-31
2024/03/09 12:04:35;;;;;;;20.92;16.15;;;11.20;99.90;;;;;;5028418;28;20029;-34
2024/03/09 12:07:03;;;;;;;24.15;18.25;;;11.30;99.90;;;;;;5039122;28;20605;-34
2024/03/09 12:09:31;;;;;;;19.90;15.45;;;11.40;99.90;;;;;;5039450;28;20079;-37
2024/03/09 12:11:57;;;;;;;21.98;15.73;;;11.50;99.90;;;;;;5038897;28;20035;-35
2024/03/09 12:14:22;;;;;;;21.55;16.55;;;11.50;99.90;;;;;;5039216;28;20029;-33
2024/03/09 12:16:48;;;;;;;22.42;17.33;;;11.60;99.90;;;;;;5039867;28;20025;-34
2024/03/09 12:19:15;;;;;;;22.05;17.40;;;11.60;99.90;;;;;;5038054;28;20493;-35
2024/03/09 12:21:41;;;;;;;19.20;15.52;;;11.60;99.90;;;;;;5039428;28;20021;-33
2024/03/09 12:24:07;;;;;;;22.52;16.70;;;11.60;99.90;;;;;;5038947;28;20025;-32
2024/03/09 12:26:42;;;;;;;21.92;16.00;;;11.50;99.90;;;;;;5038743;28;20414;-35
2024/03/09 12:29:12;;;;;;;21.25;15.63;;;11.50;99.90;;;;;;5039556;28;20071;-31
2024/03/09 12:31:40;;;;;;;19.27;14.55;;;11.60;99.90;;;;;;5019424;28;20304;-32
2024/03/09 12:34:08;;;;;;;18.23;13.77;;;11.60;99.90;;;;;;5033063;28;20083;-32
2024/03/09 12:36:34;;;;;;;18.30;13.95;;;11.70;99.90;;;;;;5039480;28;20132;-36
2024/03/09 12:39:16;;;;;;;19.33;14.95;;;11.70;99.90;;;;;;5039162;28;20048;-32
2024/03/09 12:41:52;;;;;;;19.33;15.30;;;11.70;99.90;;;;;;5040833;28;20056;-34